sensor_id;sensor_type;location;lat;lon;timestamp;temperature;humidity
19435;DHT22;9853;50.848;4.108;2022-08-01T00:01:22;22.50;99.90
19435;DHT22;9853;50.848;4.108;2022-08-01T00:03:23;22.40;99.90
19435;DHT22;9853;50.848;4.108;2022-08-01T00:05:23;22.40;99.90
19435;DHT22;9853;50.848;4.108;2022-08-01T00:07:24;22.40;99.90
19435;DHT22;9853;50.848;4.108;2022-08-01T00:09:25;22.30;99.90
19435;DHT22;9853;50.848;4.108;2022-08-01T00:11:26;22.10;99.90
19435;DHT22;9853;50.848;4.108;2022-08-01T00:13:26;22.00;99.90
19435;DHT22;9853;50.848;4.108;2022-08-01T00:15:27;22.20;99.90
19435;DHT22;9853;50.848;4.108;2022-08-01T00:17:28;22.30;99.90
19435;DHT22;9853;50.848;4.108;2022-08-01T00:19:28;22.10;99.90
19435;DHT22;9853;50.848;4.108;2022-08-01T00:21:29;22.10;99.90
19435;DHT22;9853;50.848;4.108;2022-08-01T00:23:30;22.10;99.90
19435;DHT22;9853;50.848;4.108;2022-08-01T00:25:31;22.00;99.90
19435;DHT22;9853;50.848;4.108;2022-08-01T00:27:32;22.10;99.90
19435;DHT22;9853;50.848;4.108;2022-08-01T00:29:35;22.10;99.90
19435;DHT22;9853;50.848;4.108;2022-08-01T00:31:35;22.00;99.90
19435;DHT22;9853;50.848;4.108;2022-08-01T00:33:36;21.90;99.90
19435;DHT22;9853;50.848;4.108;2022-08-01T00:35:37;22.10;99.90
19435;DHT22;9853;50.848;4.108;2022-08-01T00:37:38;22.00;99.90
19435;DHT22;9853;50.848;4.108;2022-08-01T00:39:38;21.90;99.90
19435;DHT22;9853;50.848;4.108;2022-08-01T00:41:39;21.80;99.90
19435;DHT22;9853;50.848;4.108;2022-08-01T00:43:40;21.80;99.90
19435;DHT22;9853;50.848;4.108;2022-08-01T00:45:41;21.80;99.90
19435;DHT22;9853;50.848;4.108;2022-08-01T00:47:42;21.90;99.90
19435;DHT22;9853;50.848;4.108;2022-08-01T00:49:43;21.80;99.90
19435;DHT22;9853;50.848;4.108;2022-08-01T00:51:43;21.80;99.90
19435;DHT22;9853;50.848;4.108;2022-08-01T00:53:44;21.80;99.90
19435;DHT22;9853;50.848;4.108;2022-08-01T00:55:46;21.90;99.90
19435;DHT22;9853;50.848;4.108;2022-08-01T00:57:49;21.90;99.90
19435;DHT22;9853;50.848;4.108;2022-08-01T00:59:50;21.70;99.90
19435;DHT22;9853;50.848;4.108;2022-08-01T01:01:51;21.60;99.90
19435;DHT22;9853;50.848;4.108;2022-08-01T01:03:52;21.70;99.90
19435;DHT22;9853;50.848;4.108;2022-08-01T01:06:27;21.80;99.90
19435;DHT22;9853;50.848;4.108;2022-08-01T01:08:39;21.80;99.90
19435;DHT22;9853;50.848;4.108;2022-08-01T01:10:54;21.80;99.90
19435;DHT22;9853;50.848;4.108;2022-08-01T01:13:11;21.70;99.90
19435;DHT22;9853;50.848;4.108;2022-08-01T01:15:41;21.80;99.90
19435;DHT22;9853;50.848;4.108;2022-08-01T01:18:09;21.80;99.90
19435;DHT22;9853;50.848;4.108;2022-08-01T01:20:37;21.80;99.90
19435;DHT22;9853;50.848;4.108;2022-08-01T01:29:58;21.50;99.90
19435;DHT22;9853;50.848;4.108;2022-08-01T01:32:27;21.60;99.90
19435;DHT22;9853;50.848;4.108;2022-08-01T01:34:50;21.60;99.90
19435;DHT22;9853;50.848;4.108;2022-08-01T01:37:00;21.70;99.90
19435;DHT22;9853;50.848;4.108;2022-08-01T01:39:02;21.60;99.90
19435;DHT22;9853;50.848;4.108;2022-08-01T01:41:03;21.50;99.90
19435;DHT22;9853;50.848;4.108;2022-08-01T01:43:10;21.70;99.90
19435;DHT22;9853;50.848;4.108;2022-08-01T01:45:11;21.60;99.90
19435;DHT22;9853;50.848;4.108;2022-08-01T01:47:14;21.50;99.90
19435;DHT22;9853;50.848;4.108;2022-08-01T01:49:16;21.50;99.90
19435;DHT22;9853;50.848;4.108;2022-08-01T01:51:21;21.50;99.90
19435;DHT22;9853;50.848;4.108;2022-08-01T01:53:22;21.40;99.90
19435;DHT22;9853;50.848;4.108;2022-08-01T01:55:25;21.30;99.90
19435;DHT22;9853;50.848;4.108;2022-08-01T01:57:27;21.40;99.90
19435;DHT22;9853;50.848;4.108;2022-08-01T01:59:32;21.50;99.90
19435;DHT22;9853;50.848;4.108;2022-08-01T02:01:35;21.60;99.90
19435;DHT22;9853;50.848;4.108;2022-08-01T02:03:37;21.60;99.90
19435;DHT22;9853;50.848;4.108;2022-08-01T02:05:39;21.60;99.90
19435;DHT22;9853;50.848;4.108;2022-08-01T02:07:41;21.70;99.90
19435;DHT22;9853;50.848;4.108;2022-08-01T02:09:45;21.60;99.90
19435;DHT22;9853;50.848;4.108;2022-08-01T02:11:48;21.60;99.90
19435;DHT22;9853;50.848;4.108;2022-08-01T02:13:55;21.70;99.90
19435;DHT22;9853;50.848;4.108;2022-08-01T02:15:58;21.70;99.90
19435;DHT22;9853;50.848;4.108;2022-08-01T02:17:59;21.90;99.90
19435;DHT22;9853;50.848;4.108;2022-08-01T02:20:01;22.00;99.90
19435;DHT22;9853;50.848;4.108;2022-08-01T02:24:34;21.70;99.90
19435;DHT22;9853;50.848;4.108;2022-08-01T02:26:42;21.60;99.90
19435;DHT22;9853;50.848;4.108;2022-08-01T02:29:05;21.80;99.90
19435;DHT22;9853;50.848;4.108;2022-08-01T02:31:12;21.60;99.90
19435;DHT22;9853;50.848;4.108;2022-08-01T02:33:37;21.40;99.90
19435;DHT22;9853;50.848;4.108;2022-08-01T02:35:41;21.50;99.90
19435;DHT22;9853;50.848;4.108;2022-08-01T02:37:44;21.50;99.90
19435;DHT22;9853;50.848;4.108;2022-08-01T02:39:48;21.30;99.90
19435;DHT22;9853;50.848;4.108;2022-08-01T02:41:55;21.50;99.90
19435;DHT22;9853;50.848;4.108;2022-08-01T02:44:00;21.50;99.90
19435;DHT22;9853;50.848;4.108;2022-08-01T02:46:06;21.40;99.90
19435;DHT22;9853;50.848;4.108;2022-08-01T02:48:11;21.40;99.90
19435;DHT22;9853;50.848;4.108;2022-08-01T02:50:14;21.50;99.90
19435;DHT22;9853;50.848;4.108;2022-08-01T02:52:16;21.40;99.90
19435;DHT22;9853;50.848;4.108;2022-08-01T02:54:33;21.20;99.90
19435;DHT22;9853;50.848;4.108;2022-08-01T02:56:36;21.10;99.90
19435;DHT22;9853;50.848;4.108;2022-08-01T02:58:57;21.00;99.90
19435;DHT22;9853;50.848;4.108;2022-08-01T03:00:58;21.10;99.90
19435;DHT22;9853;50.848;4.108;2022-08-01T03:03:01;21.20;99.90
19435;DHT22;9853;50.848;4.108;2022-08-01T03:05:05;21.10;99.90
19435;DHT22;9853;50.848;4.108;2022-08-01T03:07:10;21.00;99.90
19435;DHT22;9853;50.848;4.108;2022-08-01T03:09:11;21.00;99.90
19435;DHT22;9853;50.848;4.108;2022-08-01T03:11:16;21.00;99.90
19435;DHT22;9853;50.848;4.108;2022-08-01T03:13:37;21.00;99.90
19435;DHT22;9853;50.848;4.108;2022-08-01T03:15:56;20.90;99.90
19435;DHT22;9853;50.848;4.108;2022-08-01T03:17:59;21.00;99.90
19435;DHT22;9853;50.848;4.108;2022-08-01T03:20:25;21.00;99.90
19435;DHT22;9853;50.848;4.108;2022-08-01T03:22:31;21.00;99.90
19435;DHT22;9853;50.848;4.108;2022-08-01T03:24:33;21.00;99.90
19435;DHT22;9853;50.848;4.108;2022-08-01T03:26:36;21.20;99.90
19435;DHT22;9853;50.848;4.108;2022-08-01T03:28:38;21.10;99.90
19435;DHT22;9853;50.848;4.108;2022-08-01T03:30:40;21.10;99.90
19435;DHT22;9853;50.848;4.108;2022-08-01T03:32:53;21.00;99.90
19435;DHT22;9853;50.848;4.108;2022-08-01T03:35:13;21.00;99.90
19435;DHT22;9853;50.848;4.108;2022-08-01T03:37:17;20.90;99.90
19435;DHT22;9853;50.848;4.108;2022-08-01T03:39:30;21.10;99.90
19435;DHT22;9853;50.848;4.108;2022-08-01T03:42:05;21.00;99.90
19435;DHT22;9853;50.848;4.108;2022-08-01T03:44:24;21.00;99.90
19435;DHT22;9853;50.848;4.108;2022-08-01T03:46:43;20.90;99.90
19435;DHT22;9853;50.848;4.108;2022-08-01T03:48:48;20.90;99.90
19435;DHT22;9853;50.848;4.108;2022-08-01T03:50:51;20.90;99.90
19435;DHT22;9853;50.848;4.108;2022-08-01T03:52:53;20.80;99.90
19435;DHT22;9853;50.848;4.108;2022-08-01T03:54:56;20.80;99.90
19435;DHT22;9853;50.848;4.108;2022-08-01T03:57:18;20.60;99.90
19435;DHT22;9853;50.848;4.108;2022-08-01T03:59:20;20.60;99.90
19435;DHT22;9853;50.848;4.108;2022-08-01T04:01:21;20.30;99.90
19435;DHT22;9853;50.848;4.108;2022-08-01T04:03:23;20.20;99.90
19435;DHT22;9853;50.848;4.108;2022-08-01T04:05:24;20.30;99.90
19435;DHT22;9853;50.848;4.108;2022-08-01T04:07:29;20.30;99.90
19435;DHT22;9853;50.848;4.108;2022-08-01T04:09:36;20.30;99.90
19435;DHT22;9853;50.848;4.108;2022-08-01T04:11:37;20.40;99.90
19435;DHT22;9853;50.848;4.108;2022-08-01T04:13:37;20.40;99.90
19435;DHT22;9853;50.848;4.108;2022-08-01T04:15:38;20.50;99.90
19435;DHT22;9853;50.848;4.108;2022-08-01T04:17:39;21.00;99.90
19435;DHT22;9853;50.848;4.108;2022-08-01T04:19:40;21.10;99.90
19435;DHT22;9853;50.848;4.108;2022-08-01T04:21:40;20.90;99.90
19435;DHT22;9853;50.848;4.108;2022-08-01T04:23:43;20.60;99.90
19435;DHT22;9853;50.848;4.108;2022-08-01T04:25:46;20.50;99.90
19435;DHT22;9853;50.848;4.108;2022-08-01T04:27:50;20.60;99.90
19435;DHT22;9853;50.848;4.108;2022-08-01T04:29:56;20.50;99.90
19435;DHT22;9853;50.848;4.108;2022-08-01T04:32:00;20.50;99.90
19435;DHT22;9853;50.848;4.108;2022-08-01T04:34:23;20.50;99.90
19435;DHT22;9853;50.848;4.108;2022-08-01T04:36:25;20.60;99.90
19435;DHT22;9853;50.848;4.108;2022-08-01T04:38:28;20.60;99.90
19435;DHT22;9853;50.848;4.108;2022-08-01T04:40:29;20.70;99.90
19435;DHT22;9853;50.848;4.108;2022-08-01T04:42:32;20.80;99.90
19435;DHT22;9853;50.848;4.108;2022-08-01T04:44:37;20.70;99.90
19435;DHT22;9853;50.848;4.108;2022-08-01T04:46:38;20.70;99.90
19435;DHT22;9853;50.848;4.108;2022-08-01T04:48:42;20.70;99.90
19435;DHT22;9853;50.848;4.108;2022-08-01T04:50:43;20.70;99.90
19435;DHT22;9853;50.848;4.108;2022-08-01T04:52:43;20.80;99.90
19435;DHT22;9853;50.848;4.108;2022-08-01T04:54:47;21.00;99.90
19435;DHT22;9853;50.848;4.108;2022-08-01T04:56:47;20.90;99.90
19435;DHT22;9853;50.848;4.108;2022-08-01T04:58:48;20.80;99.90
19435;DHT22;9853;50.848;4.108;2022-08-01T05:01:10;20.80;99.90
19435;DHT22;9853;50.848;4.108;2022-08-01T05:03:11;20.80;99.90
19435;DHT22;9853;50.848;4.108;2022-08-01T05:05:11;20.90;99.90
19435;DHT22;9853;50.848;4.108;2022-08-01T05:07:15;20.90;99.90
19435;DHT22;9853;50.848;4.108;2022-08-01T05:09:16;21.00;99.90
19435;DHT22;9853;50.848;4.108;2022-08-01T05:11:16;20.80;99.90
19435;DHT22;9853;50.848;4.108;2022-08-01T05:13:17;20.80;99.90
19435;DHT22;9853;50.848;4.108;2022-08-01T05:15:18;20.90;99.90
19435;DHT22;9853;50.848;4.108;2022-08-01T05:17:18;20.90;99.90
19435;DHT22;9853;50.848;4.108;2022-08-01T05:19:20;21.00;99.90
19435;DHT22;9853;50.848;4.108;2022-08-01T05:21:21;21.10;99.90
19435;DHT22;9853;50.848;4.108;2022-08-01T05:23:22;21.00;99.90
19435;DHT22;9853;50.848;4.108;2022-08-01T05:25:23;20.90;99.90
19435;DHT22;9853;50.848;4.108;2022-08-01T05:27:23;20.90;99.90
19435;DHT22;9853;50.848;4.108;2022-08-01T05:29:25;21.00;99.90
19435;DHT22;9853;50.848;4.108;2022-08-01T05:31:26;21.00;99.90
19435;DHT22;9853;50.848;4.108;2022-08-01T05:33:26;21.00;99.90
19435;DHT22;9853;50.848;4.108;2022-08-01T05:35:27;21.00;99.90
19435;DHT22;9853;50.848;4.108;2022-08-01T05:37:28;21.10;99.90
19435;DHT22;9853;50.848;4.108;2022-08-01T05:39:32;21.20;99.90
19435;DHT22;9853;50.848;4.108;2022-08-01T05:41:33;21.30;99.90
19435;DHT22;9853;50.848;4.108;2022-08-01T05:43:34;21.30;99.90
19435;DHT22;9853;50.848;4.108;2022-08-01T05:45:35;21.30;99.90
19435;DHT22;9853;50.848;4.108;2022-08-01T05:47:35;21.20;99.90
19435;DHT22;9853;50.848;4.108;2022-08-01T05:49:36;21.40;99.90
19435;DHT22;9853;50.848;4.108;2022-08-01T05:51:37;21.30;99.90
19435;DHT22;9853;50.848;4.108;2022-08-01T05:53:38;21.30;99.90
19435;DHT22;9853;50.848;4.108;2022-08-01T05:55:39;21.20;99.90
19435;DHT22;9853;50.848;4.108;2022-08-01T05:57:41;21.20;99.90
19435;DHT22;9853;50.848;4.108;2022-08-01T05:59:42;21.30;99.90
19435;DHT22;9853;50.848;4.108;2022-08-01T06:01:43;21.40;99.90
19435;DHT22;9853;50.848;4.108;2022-08-01T06:03:44;21.50;99.90
19435;DHT22;9853;50.848;4.108;2022-08-01T06:05:45;21.70;99.90
19435;DHT22;9853;50.848;4.108;2022-08-01T06:07:46;22.10;99.90
19435;DHT22;9853;50.848;4.108;2022-08-01T06:09:46;22.40;99.90
19435;DHT22;9853;50.848;4.108;2022-08-01T06:11:47;22.00;99.90
19435;DHT22;9853;50.848;4.108;2022-08-01T06:13:48;21.70;99.90
19435;DHT22;9853;50.848;4.108;2022-08-01T06:15:49;21.60;99.90
19435;DHT22;9853;50.848;4.108;2022-08-01T06:17:49;21.10;99.90
19435;DHT22;9853;50.848;4.108;2022-08-01T06:19:50;21.40;99.90
19435;DHT22;9853;50.848;4.108;2022-08-01T06:21:51;21.50;99.90
19435;DHT22;9853;50.848;4.108;2022-08-01T06:23:52;21.90;99.90
19435;DHT22;9853;50.848;4.108;2022-08-01T06:25:56;22.10;99.90
19435;DHT22;9853;50.848;4.108;2022-08-01T06:27:59;22.10;99.90
19435;DHT22;9853;50.848;4.108;2022-08-01T06:30:00;21.80;99.90
19435;DHT22;9853;50.848;4.108;2022-08-01T06:32:01;22.00;99.90
19435;DHT22;9853;50.848;4.108;2022-08-01T06:34:02;21.90;99.90
19435;DHT22;9853;50.848;4.108;2022-08-01T06:36:03;21.70;99.90
19435;DHT22;9853;50.848;4.108;2022-08-01T06:38:06;22.00;99.90
19435;DHT22;9853;50.848;4.108;2022-08-01T06:40:10;22.20;99.90
19435;DHT22;9853;50.848;4.108;2022-08-01T06:42:11;22.50;99.90
19435;DHT22;9853;50.848;4.108;2022-08-01T06:44:12;22.90;99.90
19435;DHT22;9853;50.848;4.108;2022-08-01T06:46:13;22.70;99.90
19435;DHT22;9853;50.848;4.108;2022-08-01T06:48:15;22.60;99.90
19435;DHT22;9853;50.848;4.108;2022-08-01T06:50:15;22.70;99.90
19435;DHT22;9853;50.848;4.108;2022-08-01T06:52:16;22.80;99.90
19435;DHT22;9853;50.848;4.108;2022-08-01T06:54:16;22.60;99.90
19435;DHT22;9853;50.848;4.108;2022-08-01T06:56:17;22.70;99.90
19435;DHT22;9853;50.848;4.108;2022-08-01T06:58:18;22.30;99.90
19435;DHT22;9853;50.848;4.108;2022-08-01T07:00:20;21.90;99.90
19435;DHT22;9853;50.848;4.108;2022-08-01T07:02:23;22.00;99.90
19435;DHT22;9853;50.848;4.108;2022-08-01T07:04:24;21.90;99.90
19435;DHT22;9853;50.848;4.108;2022-08-01T07:06:25;21.80;99.90
19435;DHT22;9853;50.848;4.108;2022-08-01T07:08:26;21.70;99.90
19435;DHT22;9853;50.848;4.108;2022-08-01T07:10:26;21.70;99.90
19435;DHT22;9853;50.848;4.108;2022-08-01T07:12:27;21.90;99.90
19435;DHT22;9853;50.848;4.108;2022-08-01T07:14:29;22.30;99.90
19435;DHT22;9853;50.848;4.108;2022-08-01T07:16:30;22.50;99.90
19435;DHT22;9853;50.848;4.108;2022-08-01T07:18:31;22.80;99.90
19435;DHT22;9853;50.848;4.108;2022-08-01T07:20:32;23.20;99.90
19435;DHT22;9853;50.848;4.108;2022-08-01T07:22:32;23.10;99.90
19435;DHT22;9853;50.848;4.108;2022-08-01T07:24:33;23.10;99.90
19435;DHT22;9853;50.848;4.108;2022-08-01T07:26:34;22.90;99.90
19435;DHT22;9853;50.848;4.108;2022-08-01T07:28:35;22.80;99.90
19435;DHT22;9853;50.848;4.108;2022-08-01T07:30:37;22.60;99.90
19435;DHT22;9853;50.848;4.108;2022-08-01T07:32:37;22.50;99.90
19435;DHT22;9853;50.848;4.108;2022-08-01T07:34:38;22.70;99.90
19435;DHT22;9853;50.848;4.108;2022-08-01T07:36:39;22.60;99.90
19435;DHT22;9853;50.848;4.108;2022-08-01T07:38:40;22.60;99.90
19435;DHT22;9853;50.848;4.108;2022-08-01T07:40:41;22.60;99.90
19435;DHT22;9853;50.848;4.108;2022-08-01T07:42:42;22.40;99.90
19435;DHT22;9853;50.848;4.108;2022-08-01T07:44:45;22.40;99.90
19435;DHT22;9853;50.848;4.108;2022-08-01T07:46:45;22.50;99.90
19435;DHT22;9853;50.848;4.108;2022-08-01T07:48:46;22.60;99.90
19435;DHT22;9853;50.848;4.108;2022-08-01T07:50:47;22.90;99.90
19435;DHT22;9853;50.848;4.108;2022-08-01T07:52:47;23.00;99.90
19435;DHT22;9853;50.848;4.108;2022-08-01T07:54:48;23.10;99.90
19435;DHT22;9853;50.848;4.108;2022-08-01T07:56:50;23.30;99.90
19435;DHT22;9853;50.848;4.108;2022-08-01T07:58:51;23.70;99.90
19435;DHT22;9853;50.848;4.108;2022-08-01T08:00:51;24.20;99.90
19435;DHT22;9853;50.848;4.108;2022-08-01T08:02:52;24.50;99.90
19435;DHT22;9853;50.848;4.108;2022-08-01T08:04:54;24.60;99.90
19435;DHT22;9853;50.848;4.108;2022-08-01T08:06:54;24.20;99.90
19435;DHT22;9853;50.848;4.108;2022-08-01T08:08:55;24.30;99.90
19435;DHT22;9853;50.848;4.108;2022-08-01T08:10:56;24.30;99.90
19435;DHT22;9853;50.848;4.108;2022-08-01T08:12:56;24.40;99.90
19435;DHT22;9853;50.848;4.108;2022-08-01T08:14:58;24.20;99.90
19435;DHT22;9853;50.848;4.108;2022-08-01T08:16:59;24.70;99.90
19435;DHT22;9853;50.848;4.108;2022-08-01T08:19:00;25.10;99.90
19435;DHT22;9853;50.848;4.108;2022-08-01T08:21:00;25.20;99.90
19435;DHT22;9853;50.848;4.108;2022-08-01T08:23:01;24.80;99.90
19435;DHT22;9853;50.848;4.108;2022-08-01T08:25:02;24.70;99.90
19435;DHT22;9853;50.848;4.108;2022-08-01T08:27:03;24.30;99.90
19435;DHT22;9853;50.848;4.108;2022-08-01T08:29:04;24.70;99.90
19435;DHT22;9853;50.848;4.108;2022-08-01T08:31:05;25.60;99.90
19435;DHT22;9853;50.848;4.108;2022-08-01T08:33:05;26.40;99.90
19435;DHT22;9853;50.848;4.108;2022-08-01T08:35:07;27.10;99.90
19435;DHT22;9853;50.848;4.108;2022-08-01T08:37:08;27.20;99.90
19435;DHT22;9853;50.848;4.108;2022-08-01T08:39:09;27.10;99.90
19435;DHT22;9853;50.848;4.108;2022-08-01T08:41:10;26.90;99.90
19435;DHT22;9853;50.848;4.108;2022-08-01T08:43:10;27.10;99.90
19435;DHT22;9853;50.848;4.108;2022-08-01T08:45:12;27.30;99.90
19435;DHT22;9853;50.848;4.108;2022-08-01T08:47:13;27.10;99.90
19435;DHT22;9853;50.848;4.108;2022-08-01T08:49:19;27.20;99.90
19435;DHT22;9853;50.848;4.108;2022-08-01T08:51:21;27.90;99.90
19435;DHT22;9853;50.848;4.108;2022-08-01T08:53:23;28.60;99.90
19435;DHT22;9853;50.848;4.108;2022-08-01T08:55:24;28.60;99.90
19435;DHT22;9853;50.848;4.108;2022-08-01T08:57:26;27.90;99.90
19435;DHT22;9853;50.848;4.108;2022-08-01T08:59:28;27.10;99.90
19435;DHT22;9853;50.848;4.108;2022-08-01T09:01:30;27.70;99.90
19435;DHT22;9853;50.848;4.108;2022-08-01T09:03:33;28.60;99.90
19435;DHT22;9853;50.848;4.108;2022-08-01T09:05:34;28.40;99.90
19435;DHT22;9853;50.848;4.108;2022-08-01T09:07:34;28.80;99.90
19435;DHT22;9853;50.848;4.108;2022-08-01T09:09:35;29.40;99.90
19435;DHT22;9853;50.848;4.108;2022-08-01T09:11:37;29.70;99.90
19435;DHT22;9853;50.848;4.108;2022-08-01T09:13:38;29.60;99.90
19435;DHT22;9853;50.848;4.108;2022-08-01T09:15:44;29.50;99.90
19435;DHT22;9853;50.848;4.108;2022-08-01T09:17:45;29.40;99.90
19435;DHT22;9853;50.848;4.108;2022-08-01T09:19:48;28.50;99.90
19435;DHT22;9853;50.848;4.108;2022-08-01T09:22:04;27.00;99.90
19435;DHT22;9853;50.848;4.108;2022-08-01T09:24:14;26.90;99.90
19435;DHT22;9853;50.848;4.108;2022-08-01T09:26:30;26.70;99.90
19435;DHT22;9853;50.848;4.108;2022-08-01T09:28:31;27.00;99.90
19435;DHT22;9853;50.848;4.108;2022-08-01T09:30:39;28.40;99.90
19435;DHT22;9853;50.848;4.108;2022-08-01T09:33:04;28.80;99.90
19435;DHT22;9853;50.848;4.108;2022-08-01T09:37:30;28.30;99.90
19435;DHT22;9853;50.848;4.108;2022-08-01T09:39:35;28.40;99.90
19435;DHT22;9853;50.848;4.108;2022-08-01T09:41:37;27.60;99.90
19435;DHT22;9853;50.848;4.108;2022-08-01T09:43:38;27.90;99.90
19435;DHT22;9853;50.848;4.108;2022-08-01T09:45:39;29.10;99.90
19435;DHT22;9853;50.848;4.108;2022-08-01T09:47:40;29.70;99.90
19435;DHT22;9853;50.848;4.108;2022-08-01T09:49:42;30.00;99.90
19435;DHT22;9853;50.848;4.108;2022-08-01T09:51:43;30.60;99.90
19435;DHT22;9853;50.848;4.108;2022-08-01T09:53:46;30.40;99.90
19435;DHT22;9853;50.848;4.108;2022-08-01T09:55:47;29.60;99.90
19435;DHT22;9853;50.848;4.108;2022-08-01T09:57:57;29.10;99.90
19435;DHT22;9853;50.848;4.108;2022-08-01T10:00:02;28.50;99.90
19435;DHT22;9853;50.848;4.108;2022-08-01T10:02:14;28.00;99.90
19435;DHT22;9853;50.848;4.108;2022-08-01T10:04:26;27.40;99.90
19435;DHT22;9853;50.848;4.108;2022-08-01T10:06:27;27.10;99.90
19435;DHT22;9853;50.848;4.108;2022-08-01T10:08:45;26.90;99.90
19435;DHT22;9853;50.848;4.108;2022-08-01T10:11:08;27.10;99.90
19435;DHT22;9853;50.848;4.108;2022-08-01T10:13:10;27.00;99.90
19435;DHT22;9853;50.848;4.108;2022-08-01T10:15:14;27.10;99.90
19435;DHT22;9853;50.848;4.108;2022-08-01T10:17:17;26.90;99.90
19435;DHT22;9853;50.848;4.108;2022-08-01T10:19:18;26.90;99.90
19435;DHT22;9853;50.848;4.108;2022-08-01T10:21:23;26.80;99.90
19435;DHT22;9853;50.848;4.108;2022-08-01T10:23:27;27.30;99.90
19435;DHT22;9853;50.848;4.108;2022-08-01T10:25:35;27.90;99.90
19435;DHT22;9853;50.848;4.108;2022-08-01T10:27:38;28.00;99.90
19435;DHT22;9853;50.848;4.108;2022-08-01T10:29:43;28.60;99.90
19435;DHT22;9853;50.848;4.108;2022-08-01T10:31:46;28.30;99.90
19435;DHT22;9853;50.848;4.108;2022-08-01T10:33:49;28.00;99.90
19435;DHT22;9853;50.848;4.108;2022-08-01T10:35:51;28.30;99.90
19435;DHT22;9853;50.848;4.108;2022-08-01T10:37:51;28.60;99.90
19435;DHT22;9853;50.848;4.108;2022-08-01T10:39:58;28.70;99.90
19435;DHT22;9853;50.848;4.108;2022-08-01T10:42:00;28.50;99.90
19435;DHT22;9853;50.848;4.108;2022-08-01T10:44:01;28.40;99.90
19435;DHT22;9853;50.848;4.108;2022-08-01T10:46:05;28.70;99.90
19435;DHT22;9853;50.848;4.108;2022-08-01T10:50:38;28.00;99.90
19435;DHT22;9853;50.848;4.108;2022-08-01T10:52:39;28.30;99.90
19435;DHT22;9853;50.848;4.108;2022-08-01T10:54:40;28.30;99.90
19435;DHT22;9853;50.848;4.108;2022-08-01T10:56:46;28.30;99.90
19435;DHT22;9853;50.848;4.108;2022-08-01T10:58:48;28.50;99.90
19435;DHT22;9853;50.848;4.108;2022-08-01T11:01:25;28.30;99.90
19435;DHT22;9853;50.848;4.108;2022-08-01T11:03:34;28.50;99.90
19435;DHT22;9853;50.848;4.108;2022-08-01T11:05:36;27.90;99.90
19435;DHT22;9853;50.848;4.108;2022-08-01T11:07:47;27.20;99.90
19435;DHT22;9853;50.848;4.108;2022-08-01T11:10:03;27.20;99.90
19435;DHT22;9853;50.848;4.108;2022-08-01T11:12:09;27.00;99.90
19435;DHT22;9853;50.848;4.108;2022-08-01T11:14:10;26.80;99.90
19435;DHT22;9853;50.848;4.108;2022-08-01T11:16:29;26.70;99.90
19435;DHT22;9853;50.848;4.108;2022-08-01T11:18:31;27.00;99.90
19435;DHT22;9853;50.848;4.108;2022-08-01T11:20:36;27.40;99.90
19435;DHT22;9853;50.848;4.108;2022-08-01T11:25:06;28.00;99.90
19435;DHT22;9853;50.848;4.108;2022-08-01T11:27:25;28.20;99.90
19435;DHT22;9853;50.848;4.108;2022-08-01T11:29:26;28.10;99.90
19435;DHT22;9853;50.848;4.108;2022-08-01T11:31:27;27.80;99.90
19435;DHT22;9853;50.848;4.108;2022-08-01T11:38:23;27.00;99.90
19435;DHT22;9853;50.848;4.108;2022-08-01T11:40:28;27.30;99.90
19435;DHT22;9853;50.848;4.108;2022-08-01T11:42:28;27.40;99.90
19435;DHT22;9853;50.848;4.108;2022-08-01T11:44:50;27.30;99.90
19435;DHT22;9853;50.848;4.108;2022-08-01T11:47:04;27.00;99.90
19435;DHT22;9853;50.848;4.108;2022-08-01T11:51:26;26.60;99.90
19435;DHT22;9853;50.848;4.108;2022-08-01T11:53:27;26.90;99.90
19435;DHT22;9853;50.848;4.108;2022-08-01T11:55:28;27.30;99.90
19435;DHT22;9853;50.848;4.108;2022-08-01T11:57:31;27.80;99.90
19435;DHT22;9853;50.848;4.108;2022-08-01T11:59:43;28.00;99.90
19435;DHT22;9853;50.848;4.108;2022-08-01T12:01:46;27.80;99.90
19435;DHT22;9853;50.848;4.108;2022-08-01T12:03:55;27.30;99.90
19435;DHT22;9853;50.848;4.108;2022-08-01T12:05:56;27.10;99.90
19435;DHT22;9853;50.848;4.108;2022-08-01T12:07:57;27.20;99.90
19435;DHT22;9853;50.848;4.108;2022-08-01T12:10:14;27.40;99.90
19435;DHT22;9853;50.848;4.108;2022-08-01T12:12:16;27.60;99.90
19435;DHT22;9853;50.848;4.108;2022-08-01T12:14:19;27.90;99.90
19435;DHT22;9853;50.848;4.108;2022-08-01T12:16:21;28.40;99.90
19435;DHT22;9853;50.848;4.108;2022-08-01T12:18:22;28.90;99.90
19435;DHT22;9853;50.848;4.108;2022-08-01T12:20:23;28.90;99.90
19435;DHT22;9853;50.848;4.108;2022-08-01T12:22:25;29.20;99.90
19435;DHT22;9853;50.848;4.108;2022-08-01T12:24:26;29.00;99.90
19435;DHT22;9853;50.848;4.108;2022-08-01T12:26:41;29.30;99.90
19435;DHT22;9853;50.848;4.108;2022-08-01T12:28:41;29.00;99.90
19435;DHT22;9853;50.848;4.108;2022-08-01T12:30:42;28.60;99.90
19435;DHT22;9853;50.848;4.108;2022-08-01T12:32:45;29.00;99.90
19435;DHT22;9853;50.848;4.108;2022-08-01T12:34:46;29.00;99.90
19435;DHT22;9853;50.848;4.108;2022-08-01T12:36:47;29.10;99.90
19435;DHT22;9853;50.848;4.108;2022-08-01T12:38:52;29.30;99.90
19435;DHT22;9853;50.848;4.108;2022-08-01T12:40:53;29.40;99.90
19435;DHT22;9853;50.848;4.108;2022-08-01T12:42:57;29.20;99.90
19435;DHT22;9853;50.848;4.108;2022-08-01T12:44:58;29.20;99.90
19435;DHT22;9853;50.848;4.108;2022-08-01T12:47:00;29.30;99.90
19435;DHT22;9853;50.848;4.108;2022-08-01T12:49:01;29.10;99.90
19435;DHT22;9853;50.848;4.108;2022-08-01T12:51:02;29.10;99.90
19435;DHT22;9853;50.848;4.108;2022-08-01T12:53:03;29.00;99.90
19435;DHT22;9853;50.848;4.108;2022-08-01T12:55:05;28.90;99.90
19435;DHT22;9853;50.848;4.108;2022-08-01T12:57:22;29.00;99.90
19435;DHT22;9853;50.848;4.108;2022-08-01T12:59:25;29.20;99.90
19435;DHT22;9853;50.848;4.108;2022-08-01T13:01:27;29.10;99.90
19435;DHT22;9853;50.848;4.108;2022-08-01T13:03:28;28.50;99.90
19435;DHT22;9853;50.848;4.108;2022-08-01T13:05:41;28.20;99.90
19435;DHT22;9853;50.848;4.108;2022-08-01T13:07:49;28.10;99.90
19435;DHT22;9853;50.848;4.108;2022-08-01T13:09:51;28.50;99.90
19435;DHT22;9853;50.848;4.108;2022-08-01T13:11:51;28.80;99.90
19435;DHT22;9853;50.848;4.108;2022-08-01T13:13:53;29.10;99.90
19435;DHT22;9853;50.848;4.108;2022-08-01T13:16:05;29.10;99.90
19435;DHT22;9853;50.848;4.108;2022-08-01T13:18:25;28.40;99.90
19435;DHT22;9853;50.848;4.108;2022-08-01T13:20:32;28.10;99.90
19435;DHT22;9853;50.848;4.108;2022-08-01T13:22:34;28.00;99.90
19435;DHT22;9853;50.848;4.108;2022-08-01T13:24:35;28.40;99.90
19435;DHT22;9853;50.848;4.108;2022-08-01T13:26:53;28.40;99.90
19435;DHT22;9853;50.848;4.108;2022-08-01T13:29:06;28.90;99.90
19435;DHT22;9853;50.848;4.108;2022-08-01T13:31:08;29.30;99.90
19435;DHT22;9853;50.848;4.108;2022-08-01T13:33:09;29.20;99.90
19435;DHT22;9853;50.848;4.108;2022-08-01T13:35:13;29.00;99.90
19435;DHT22;9853;50.848;4.108;2022-08-01T13:37:14;28.50;99.90
19435;DHT22;9853;50.848;4.108;2022-08-01T13:39:14;28.30;99.90
19435;DHT22;9853;50.848;4.108;2022-08-01T13:41:34;28.10;99.90